createdAt,value
2018-09-11T00:01:45.141Z,64.52
2018-09-11T00:04:12.337Z,64.25
2018-09-11T00:06:39.528Z,65.44
2018-09-11T00:09:09.472Z,65.42
2018-09-11T00:11:36.767Z,65.74
2018-09-11T00:14:03.951Z,65.46
2018-09-11T00:16:31.172Z,65.71
2018-09-11T00:18:58.335Z,65.07
2018-09-11T00:21:25.561Z,65.00
2018-09-11T00:23:52.750Z,64.55
2018-09-11T00:26:19.997Z,64.74
2018-09-11T00:28:47.157Z,64.81
2018-09-11T00:31:14.337Z,65.38
2018-09-11T00:33:41.574Z,65.72
2018-09-11T00:36:08.777Z,65.24
2018-09-11T00:38:36.026Z,66.29
2018-09-11T00:41:03.209Z,65.56
2018-09-11T00:43:30.434Z,65.33
2018-09-11T00:45:57.598Z,66.07
2018-09-11T00:48:24.830Z,65.62
2018-09-11T00:50:51.998Z,65.98
2018-09-11T00:53:19.282Z,65.78
2018-09-11T00:55:46.437Z,66.95
2018-09-11T00:58:13.582Z,67.24
2018-09-11T01:00:40.779Z,68.60
2018-09-11T01:03:08.108Z,67.70
2018-09-11T01:05:35.364Z,67.23
2018-09-11T01:08:02.535Z,66.85
2018-09-11T01:10:29.719Z,66.84
2018-09-11T01:12:56.900Z,67.68
2018-09-11T01:15:24.050Z,67.24
2018-09-11T01:17:51.254Z,67.50
2018-09-11T01:20:18.536Z,67.10
2018-09-11T01:22:45.751Z,67.33
2018-09-11T01:25:12.991Z,67.36
2018-09-11T01:27:40.132Z,68.09
2018-09-11T01:30:07.462Z,68.46
2018-09-11T01:32:34.937Z,67.87
2018-09-11T01:35:02.160Z,68.02
2018-09-11T01:37:29.313Z,67.37
2018-09-11T01:39:56.541Z,67.50
2018-09-11T01:42:23.714Z,67.80
2018-09-11T01:44:50.870Z,67.93
2018-09-11T01:47:18.064Z,67.93
2018-09-11T01:49:45.246Z,68.65
2018-09-11T01:52:12.422Z,69.19
2018-09-11T01:54:39.597Z,69.84
2018-09-11T01:57:06.776Z,69.07
2018-09-11T01:59:34.002Z,69.88
2018-09-11T02:02:01.213Z,69.69
2018-09-11T02:04:28.377Z,68.82
2018-09-11T02:06:55.523Z,68.75
2018-09-11T02:09:22.734Z,68.60
2018-09-11T02:11:49.918Z,68.18
2018-09-11T02:14:17.054Z,68.34
2018-09-11T02:16:44.234Z,68.00
2018-09-11T02:19:11.519Z,68.61
2018-09-11T02:21:38.702Z,69.07
2018-09-11T02:24:06.013Z,68.63
2018-09-11T02:26:33.470Z,69.72
2018-09-11T02:29:00.598Z,68.93
2018-09-11T02:31:27.749Z,68.17
2018-09-11T02:33:54.978Z,68.33
2018-09-11T02:36:22.190Z,68.20
2018-09-11T02:38:49.345Z,69.21
2018-09-11T02:41:16.574Z,69.05
2018-09-11T02:43:43.780Z,69.80
2018-09-11T02:46:11.018Z,70.07
2018-09-11T02:48:38.282Z,69.85
2018-09-11T02:51:05.803Z,69.81
2018-09-11T02:53:33.145Z,70.00
2018-09-11T02:56:00.313Z,69.14
2018-09-11T02:58:27.556Z,69.89
2018-09-11T03:00:54.806Z,69.13
2018-09-11T03:03:22.096Z,69.80
2018-09-11T03:05:49.423Z,69.80
2018-09-11T03:08:16.600Z,69.78
2018-09-11T03:10:43.799Z,69.27
2018-09-11T03:13:11.627Z,69.34
2018-09-11T03:15:38.862Z,69.41
2018-09-11T03:18:06.295Z,68.89
2018-09-11T03:20:33.485Z,68.19
2018-09-11T03:23:00.623Z,69.44
2018-09-11T03:25:27.830Z,69.54
2018-09-11T03:27:55.043Z,69.38
2018-09-11T03:30:22.206Z,69.46
2018-09-11T03:32:49.348Z,69.30
2018-09-11T03:35:16.533Z,69.62
2018-09-11T03:37:43.700Z,69.54
2018-09-11T03:40:11.487Z,70.74
2018-09-11T03:42:38.644Z,71.05
2018-09-11T03:45:05.838Z,70.27
2018-09-11T03:47:32.982Z,70.27
2018-09-11T03:50:00.172Z,69.86
2018-09-11T03:52:27.345Z,69.96
2018-09-11T03:54:54.512Z,69.64
2018-09-11T03:57:21.647Z,70.18
2018-09-11T03:59:48.825Z,70.53
2018-09-11T04:02:16.042Z,71.21
2018-09-11T04:04:43.222Z,70.89
2018-09-11T04:07:10.501Z,70.63
2018-09-11T04:09:37.677Z,71.23
2018-09-11T04:12:04.924Z,70.75
2018-09-11T04:14:32.070Z,70.85
2018-09-11T04:16:59.269Z,70.48
2018-09-11T04:19:26.430Z,71.54
2018-09-11T04:21:53.569Z,71.44
2018-09-11T04:24:20.698Z,71.06
2018-09-11T04:26:47.967Z,71.16
2018-09-11T04:29:15.125Z,70.72
2018-09-11T04:31:42.353Z,70.96
2018-09-11T04:34:09.634Z,70.72
2018-09-11T04:36:36.915Z,71.55
2018-09-11T04:39:06.335Z,70.96
2018-09-11T04:41:33.685Z,71.19
2018-09-11T04:44:00.897Z,70.89
2018-09-11T04:46:28.048Z,70.98
2018-09-11T04:48:55.279Z,71.08
2018-09-11T04:51:22.594Z,71.55
2018-09-11T04:53:49.946Z,70.41
2018-09-11T04:56:17.130Z,70.72
2018-09-11T04:58:44.361Z,70.50
2018-09-11T05:01:11.617Z,70.55
2018-09-11T05:03:38.789Z,71.14
2018-09-11T05:06:06.409Z,71.89
2018-09-11T05:08:33.580Z,71.92
2018-09-11T05:11:00.824Z,71.19
2018-09-11T05:13:28.055Z,71.30
2018-09-11T05:15:55.256Z,71.24
2018-09-11T05:18:22.640Z,70.94
2018-09-11T05:20:49.771Z,70.98
2018-09-11T05:23:17.224Z,71.18
2018-09-11T05:25:44.722Z,70.48
2018-09-11T05:28:11.976Z,71.27
2018-09-11T05:30:39.127Z,70.73
2018-09-11T05:33:06.570Z,71.07
2018-09-11T05:35:33.720Z,71.09
2018-09-11T05:38:02.025Z,70.52
2018-09-11T05:40:29.297Z,70.71
2018-09-11T05:42:56.454Z,70.17
2018-09-11T05:45:23.735Z,69.54
2018-09-11T05:47:50.858Z,69.74
2018-09-11T05:50:17.997Z,68.85
2018-09-11T05:52:45.260Z,69.35
2018-09-11T05:55:12.658Z,69.16
2018-09-11T05:57:39.813Z,69.49
2018-09-11T06:00:07.351Z,69.68
2018-09-11T06:02:34.666Z,69.52
2018-09-11T06:05:02.161Z,69.84
2018-09-11T06:07:29.374Z,70.55
2018-09-11T06:09:56.557Z,70.15
2018-09-11T06:12:23.770Z,69.74
2018-09-11T06:14:51.029Z,70.07
2018-09-11T06:17:18.217Z,69.80
2018-09-11T06:19:45.681Z,69.73
2018-09-11T06:22:12.934Z,69.82
2018-09-11T06:24:40.171Z,69.92
2018-09-11T06:27:07.594Z,70.78
2018-09-11T06:29:35.499Z,70.36
2018-09-11T06:32:02.734Z,70.68
2018-09-11T06:34:29.967Z,70.46
2018-09-11T06:36:57.685Z,69.95
2018-09-11T06:39:25.025Z,69.83
2018-09-11T06:41:52.352Z,70.11
2018-09-11T06:44:19.545Z,70.39
2018-09-11T06:46:47.622Z,69.71
2018-09-11T06:49:16.362Z,69.84
2018-09-11T06:51:44.344Z,69.34
2018-09-11T06:54:11.795Z,68.93
2018-09-11T06:56:39.127Z,69.22
2018-09-11T06:59:06.329Z,68.60
2018-09-11T07:01:33.480Z,68.62
2018-09-11T07:04:00.737Z,68.01
2018-09-11T07:06:28.009Z,68.21
2018-09-11T07:08:55.340Z,67.06
2018-09-11T07:11:22.585Z,67.62
2018-09-11T07:13:50.096Z,66.59
2018-09-11T07:16:17.273Z,65.77
2018-09-11T07:18:44.498Z,66.38
2018-09-11T07:21:11.745Z,65.54
2018-09-11T07:23:38.928Z,65.47
2018-09-11T07:26:06.643Z,65.43
2018-09-11T07:28:33.912Z,65.47
2018-09-11T07:31:01.121Z,64.63
2018-09-11T07:33:28.424Z,64.25
2018-09-11T07:35:55.942Z,64.00
2018-09-11T07:38:24.437Z,63.29
2018-09-11T07:40:51.567Z,63.16
2018-09-11T07:43:18.817Z,63.38
2018-09-11T07:45:45.970Z,62.30
2018-09-11T07:48:13.284Z,62.34
2018-09-11T07:50:40.496Z,61.85
2018-09-11T07:53:08.218Z,62.19
2018-09-11T07:55:35.378Z,61.55
2018-09-11T07:58:02.772Z,60.85
2018-09-11T08:00:29.869Z,61.42
2018-09-11T08:02:57.012Z,60.34
2018-09-11T08:05:24.333Z,60.93
2018-09-11T08:07:51.593Z,60.64
2018-09-11T08:10:18.769Z,59.80
2018-09-11T08:12:45.987Z,60.38
2018-09-11T08:15:13.783Z,60.01
2018-09-11T08:17:41.547Z,59.44
2018-09-11T08:20:08.849Z,59.11
2018-09-11T08:22:36.083Z,59.21
2018-09-11T08:25:03.389Z,58.81
2018-09-11T08:27:31.138Z,58.97
2018-09-11T08:29:58.331Z,57.42
2018-09-11T08:32:25.553Z,56.94
2018-09-11T08:34:52.797Z,56.22
2018-09-11T08:37:19.994Z,55.39
2018-09-11T08:39:47.222Z,56.26
2018-09-11T08:42:14.451Z,55.84
2018-09-11T08:44:41.942Z,55.15
2018-09-11T08:47:09.323Z,54.88
2018-09-11T08:49:37.392Z,54.91
2018-09-11T08:52:06.879Z,54.69
2018-09-11T08:54:33.998Z,54.02
2018-09-11T08:57:01.327Z,54.28
2018-09-11T08:59:28.563Z,53.59
2018-09-11T09:01:56.602Z,53.25
2018-09-11T09:04:23.753Z,53.20
2018-09-11T09:06:51.032Z,52.93
2018-09-11T09:09:18.171Z,52.61
2018-09-11T09:11:45.673Z,52.54
2018-09-11T09:14:12.954Z,50.89
2018-09-11T09:16:40.210Z,51.36
2018-09-11T09:19:07.440Z,50.77
2018-09-11T09:21:34.865Z,51.02
2018-09-11T09:24:02.273Z,49.12
2018-09-11T09:26:30.214Z,49.92
2018-09-11T09:28:57.945Z,49.52
2018-09-11T09:31:25.116Z,48.68
2018-09-11T09:33:52.311Z,49.32
2018-09-11T09:36:19.553Z,48.41
2018-09-11T09:38:46.799Z,47.92
2018-09-11T09:41:14.688Z,47.90
2018-09-11T09:43:42.293Z,48.09
2018-09-11T09:46:09.542Z,48.43
2018-09-11T09:48:36.741Z,47.64
2018-09-11T09:51:04.338Z,47.69
2018-09-11T09:53:31.589Z,47.93
2018-09-11T09:55:58.846Z,47.72
2018-09-11T09:58:26.186Z,47.65
2018-09-11T10:01:58.854Z,47.30
2018-09-11T10:04:26.085Z,46.30
2018-09-11T10:06:53.330Z,46.15
2018-09-11T10:09:20.667Z,46.58
2018-09-11T10:11:48.049Z,46.55
2018-09-11T10:14:15.281Z,45.91
2018-09-11T10:16:42.579Z,45.67
2018-09-11T10:19:09.985Z,45.10
2018-09-11T10:21:37.491Z,45.80
2018-09-11T10:24:05.153Z,44.96
2018-09-11T10:26:32.558Z,44.93
2018-09-11T10:29:00.842Z,45.35
2018-09-11T10:31:28.028Z,45.25
2018-09-11T10:33:55.263Z,44.04
2018-09-11T10:36:22.426Z,44.91
2018-09-11T10:38:49.743Z,43.96
2018-09-11T10:41:16.934Z,44.63
2018-09-11T10:43:44.109Z,42.99
2018-09-11T10:46:11.297Z,43.95
2018-09-11T10:48:38.476Z,43.91
2018-09-11T10:51:05.854Z,43.09
2018-09-11T10:53:34.187Z,43.18
2018-09-11T10:56:01.535Z,43.76
2018-09-11T10:58:28.701Z,43.72
2018-09-11T11:00:57.039Z,43.08
2018-09-11T11:03:24.553Z,42.09
2018-09-11T11:05:52.783Z,42.25
2018-09-11T11:08:20.149Z,42.99
2018-09-11T11:10:47.712Z,42.94
2018-09-11T11:13:15.101Z,42.44
2018-09-11T11:15:42.518Z,41.93
2018-09-11T11:18:09.783Z,42.13
2018-09-11T11:20:37.085Z,41.78
2018-09-11T11:23:04.392Z,41.35
2018-09-11T11:25:31.609Z,41.83
2018-09-11T11:27:58.791Z,41.28
2018-09-11T11:30:28.058Z,40.33
2018-09-11T11:32:55.882Z,39.43
2018-09-11T11:35:23.102Z,37.68
2018-09-11T11:37:50.407Z,38.37
2018-09-11T11:40:17.671Z,39.92
2018-09-11T11:42:45.043Z,38.81
2018-09-11T11:45:12.450Z,37.95
2018-09-11T11:47:39.664Z,38.71
2018-09-11T11:50:06.794Z,37.96
2018-09-11T11:52:35.104Z,38.00
2018-09-11T11:55:02.369Z,37.89
2018-09-11T11:57:29.552Z,37.46
2018-09-11T11:59:56.752Z,37.74
2018-09-11T12:02:24.050Z,37.41
2018-09-11T12:04:51.179Z,37.33
2018-09-11T12:07:18.401Z,36.32
2018-09-11T12:09:45.633Z,36.17
2018-09-11T12:12:12.904Z,35.04
2018-09-11T12:14:40.207Z,36.52
2018-09-11T12:17:07.593Z,35.52
2018-09-11T12:19:35.022Z,35.45
2018-09-11T12:22:02.176Z,35.29
2018-09-11T12:24:29.730Z,34.88
2018-09-11T12:26:57.009Z,35.36
2018-09-11T12:29:24.199Z,35.27
2018-09-11T12:31:51.402Z,35.35
2018-09-11T12:34:18.600Z,34.51
2018-09-11T12:36:45.885Z,35.04
2018-09-11T12:39:13.113Z,33.71
2018-09-11T12:41:40.322Z,34.39
2018-09-11T12:44:07.607Z,34.13
2018-09-11T12:46:35.162Z,33.46
2018-09-11T12:49:01.934Z,33.61
2018-09-11T12:51:29.086Z,34.07
2018-09-11T12:53:57.279Z,33.38
2018-09-11T12:56:24.665Z,32.88
2018-09-11T12:58:51.930Z,33.10
2018-09-11T13:01:19.332Z,32.52
2018-09-11T13:03:46.698Z,32.54
2018-09-11T13:06:14.339Z,32.70
2018-09-11T13:08:43.383Z,32.07
2018-09-11T13:11:10.747Z,32.97
2018-09-11T13:13:38.153Z,31.90
2018-09-11T13:16:05.407Z,32.39
2018-09-11T13:18:32.564Z,31.43
2018-09-11T13:20:59.990Z,32.37
2018-09-11T13:23:27.115Z,31.37
2018-09-11T13:25:54.370Z,32.26
2018-09-11T13:28:22.408Z,31.60
2018-09-11T13:30:50.740Z,31.48
2018-09-11T13:33:18.013Z,32.14
2018-09-11T13:35:45.209Z,31.55
2018-09-11T13:38:12.417Z,31.74
2018-09-11T13:40:39.615Z,30.33
2018-09-11T13:43:06.917Z,29.28
2018-09-11T13:45:34.994Z,28.66
2018-09-11T13:48:11.055Z,28.58
2018-09-11T13:50:39.106Z,27.88
2018-09-11T13:53:07.213Z,29.54
2018-09-11T13:55:34.406Z,28.83
2018-09-11T13:58:01.597Z,29.41
2018-09-11T14:00:28.775Z,28.26
2018-09-11T14:02:56.586Z,27.32
2018-09-11T14:05:23.892Z,28.56
2018-09-11T14:07:51.114Z,27.33
2018-09-11T14:10:18.490Z,27.99
2018-09-11T14:12:45.778Z,27.75
2018-09-11T14:15:12.995Z,27.49
2018-09-11T14:17:40.220Z,28.11
2018-09-11T14:20:07.739Z,27.76
2018-09-11T14:22:35.352Z,27.81
2018-09-11T14:25:02.537Z,27.98
2018-09-11T14:27:30.166Z,27.33
2018-09-11T14:29:57.307Z,26.47
2018-09-11T14:32:24.561Z,26.62
2018-09-11T14:34:51.786Z,26.99
2018-09-11T14:37:19.050Z,25.91
2018-09-11T14:39:46.305Z,26.71
2018-09-11T14:42:13.638Z,26.57
2018-09-11T14:44:41.230Z,26.42
2018-09-11T14:47:08.423Z,26.32
2018-09-11T14:49:35.692Z,26.04
2018-09-11T14:52:02.836Z,25.89
2018-09-11T14:54:30.811Z,25.65
2018-09-11T14:56:58.729Z,25.85
2018-09-11T14:59:26.075Z,25.05
2018-09-11T15:01:54.313Z,24.37
2018-09-11T15:04:21.618Z,24.23
2018-09-11T15:06:49.015Z,24.95
2018-09-11T15:09:16.277Z,24.17
2018-09-11T15:11:43.492Z,25.12
2018-09-11T15:14:12.051Z,24.36
2018-09-11T15:16:39.246Z,23.91
2018-09-11T15:19:07.176Z,24.26
2018-09-11T15:21:34.582Z,23.96
2018-09-11T15:24:01.756Z,23.71
2018-09-11T15:26:29.190Z,23.70
2018-09-11T15:28:57.227Z,23.57
2018-09-11T15:31:24.555Z,23.83
2018-09-11T15:33:52.268Z,23.95
2018-09-11T15:36:19.888Z,24.23
2018-09-11T15:38:47.132Z,24.09
2018-09-11T15:41:14.389Z,24.89
2018-09-11T15:43:41.791Z,25.28
2018-09-11T15:46:10.326Z,24.54
2018-09-11T15:48:37.559Z,26.36
2018-09-11T15:51:05.265Z,27.02
2018-09-11T15:53:32.975Z,26.21
2018-09-11T15:56:00.351Z,26.90
2018-09-11T15:58:28.048Z,27.87
2018-09-11T16:00:55.348Z,26.81
2018-09-11T16:03:22.947Z,28.06
2018-09-11T16:05:50.907Z,27.42
2018-09-11T16:08:18.373Z,28.63
2018-09-11T16:10:45.721Z,28.87
2018-09-11T16:13:13.096Z,27.85
2018-09-11T16:15:40.687Z,27.98
2018-09-11T16:18:08.212Z,28.48
2018-09-11T16:20:35.977Z,28.13
2018-09-11T16:23:03.351Z,27.21
2018-09-11T16:25:30.636Z,26.88
2018-09-11T16:27:58.660Z,25.62
2018-09-11T16:30:26.162Z,24.80
2018-09-11T16:32:53.733Z,24.76
2018-09-11T16:35:21.032Z,24.16
2018-09-11T16:37:48.286Z,24.23
2018-09-11T16:40:16.022Z,24.23
2018-09-11T16:42:43.588Z,23.88
2018-09-11T16:45:10.834Z,23.60
2018-09-11T16:47:38.757Z,23.69
2018-09-11T16:52:53.199Z,24.46
2018-09-11T16:55:20.812Z,24.60
2018-09-11T16:57:48.084Z,24.46
2018-09-11T17:00:15.411Z,24.35
2018-09-11T17:02:42.675Z,24.90
2018-09-11T17:05:09.950Z,25.91
2018-09-11T17:07:37.278Z,25.82
2018-09-11T17:10:04.883Z,27.02
2018-09-11T17:12:32.881Z,27.68
2018-09-11T17:15:01.395Z,27.00
2018-09-11T17:17:28.819Z,27.41
2018-09-11T17:19:56.132Z,28.83
2018-09-11T17:22:23.397Z,29.24
2018-09-11T17:24:50.969Z,28.49
2018-09-11T17:27:18.446Z,28.30
2018-09-11T17:29:45.636Z,29.17
2018-09-11T17:32:13.429Z,30.25
2018-09-11T17:34:40.656Z,29.65
2018-09-11T17:37:08.082Z,30.22
2018-09-11T17:39:35.422Z,30.52
2018-09-11T17:42:03.052Z,32.31
2018-09-11T17:44:30.412Z,33.02
2018-09-11T17:46:57.672Z,34.12
2018-09-11T17:49:24.949Z,34.24
2018-09-11T17:51:52.218Z,33.97
2018-09-11T17:54:19.575Z,35.19
2018-09-11T17:56:47.396Z,35.59
2018-09-11T17:59:14.840Z,36.23
2018-09-11T18:01:42.107Z,40.79
2018-09-11T18:04:09.374Z,40.10
2018-09-11T18:06:36.579Z,41.92
2018-09-11T18:09:06.100Z,42.30
2018-09-11T18:11:33.991Z,42.94
2018-09-11T18:14:02.251Z,41.85
2018-09-11T18:16:29.679Z,41.42
2018-09-11T18:18:56.997Z,41.62
2018-09-11T18:21:24.964Z,41.85
2018-09-11T18:23:52.261Z,42.31
2018-09-11T18:26:19.496Z,41.24
2018-09-11T18:28:46.965Z,42.51
2018-09-11T18:31:14.254Z,42.38
2018-09-11T18:33:41.812Z,42.10
2018-09-11T18:36:09.478Z,41.70
2018-09-11T18:38:37.241Z,41.25
2018-09-11T18:41:04.593Z,41.58
2018-09-11T18:43:31.955Z,41.95
2018-09-11T18:45:59.456Z,41.53
2018-09-11T18:48:26.845Z,43.35
2018-09-11T18:50:55.742Z,41.59
2018-09-11T18:53:23.402Z,41.89
2018-09-11T18:55:51.412Z,42.62
2018-09-11T18:58:19.034Z,43.73
2018-09-11T19:00:46.859Z,43.30
2018-09-11T19:03:15.048Z,44.09
2018-09-11T19:05:42.484Z,44.08
2018-09-11T19:08:10.435Z,43.65
2018-09-11T19:10:38.648Z,44.39
2018-09-11T19:13:07.015Z,45.09
2018-09-11T19:15:34.523Z,43.48
2018-09-11T19:18:02.128Z,43.84
2018-09-11T19:20:29.504Z,44.45
2018-09-11T19:22:56.700Z,44.78
2018-09-11T19:25:23.963Z,44.52
2018-09-11T19:27:51.251Z,45.00
2018-09-11T19:30:18.507Z,45.01
2018-09-11T19:32:45.719Z,44.76
2018-09-11T19:35:12.983Z,44.53
2018-09-11T19:37:40.184Z,45.80
2018-09-11T19:40:07.796Z,45.59
2018-09-11T19:42:35.070Z,44.88
2018-09-11T19:45:02.382Z,45.90
2018-09-11T19:47:29.671Z,47.20
2018-09-11T19:49:56.997Z,45.91
2018-09-11T19:52:24.200Z,46.10
2018-09-11T19:54:51.522Z,48.68
2018-09-11T19:57:18.835Z,49.74
2018-09-11T19:59:47.029Z,50.39
2018-09-11T20:02:14.218Z,50.77
2018-09-11T20:04:42.444Z,51.06
2018-09-11T20:07:09.786Z,50.83
2018-09-11T20:09:37.015Z,50.75
2018-09-11T20:12:04.305Z,50.35
2018-09-11T20:14:31.595Z,50.68
2018-09-11T20:16:58.912Z,52.24
2018-09-11T20:19:26.262Z,52.06
2018-09-11T20:21:54.275Z,52.27
2018-09-11T20:24:22.069Z,53.01
2018-09-11T20:26:50.246Z,52.44
2018-09-11T20:29:17.496Z,52.68
2018-09-11T20:31:44.750Z,53.30
2018-09-11T20:34:11.949Z,53.06
2018-09-11T20:36:41.379Z,53.59
2018-09-11T20:39:09.955Z,53.41
2018-09-11T20:41:37.300Z,53.83
2018-09-11T20:44:04.619Z,54.04
2018-09-11T20:46:31.851Z,53.32
2018-09-11T20:48:59.067Z,53.51
2018-09-11T20:51:26.302Z,53.61
2018-09-11T20:53:54.215Z,54.46
2018-09-11T20:56:21.366Z,55.07
2018-09-11T20:58:48.559Z,54.89
2018-09-11T21:01:15.738Z,54.52
2018-09-11T21:03:43.014Z,54.40
2018-09-11T21:06:10.758Z,55.31
2018-09-11T21:08:38.005Z,55.29
2018-09-11T21:11:05.387Z,55.91
2018-09-11T21:13:32.780Z,54.86
2018-09-11T21:15:59.966Z,55.34
2018-09-11T21:18:27.579Z,55.56
2018-09-11T21:20:54.776Z,56.17
2018-09-11T21:23:21.966Z,55.51
2018-09-11T21:25:49.110Z,55.84
2018-09-11T21:28:16.351Z,56.26
2018-09-11T21:30:43.624Z,56.07
2018-09-11T21:33:11.040Z,56.37
2018-09-11T21:35:38.225Z,57.20
2018-09-11T21:38:06.506Z,56.74
2018-09-11T21:40:33.757Z,57.03
2018-09-11T21:43:00.938Z,56.88
2018-09-11T21:45:28.309Z,56.98
2018-09-11T21:47:55.624Z,56.82
2018-09-11T21:50:22.860Z,57.60
2018-09-11T21:52:50.034Z,58.07
2018-09-11T21:55:17.239Z,58.20
2018-09-11T21:57:44.352Z,58.65
2018-09-11T22:00:12.625Z,58.58
2018-09-11T22:02:39.690Z,58.05
2018-09-11T22:05:07.249Z,58.13
2018-09-11T22:07:34.514Z,58.46
2018-09-11T22:10:01.736Z,58.61
2018-09-11T22:12:29.317Z,58.40
2018-09-11T22:14:56.617Z,59.18
2018-09-11T22:17:23.846Z,58.59
2018-09-11T22:19:51.710Z,59.82
2018-09-11T22:22:18.857Z,59.64
2018-09-11T22:24:46.066Z,59.56
2018-09-11T22:27:13.571Z,60.49
2018-09-11T22:29:40.734Z,60.60
2018-09-11T22:32:08.107Z,59.77
2018-09-11T22:34:35.286Z,60.23
2018-09-11T22:37:02.566Z,59.74
2018-09-11T22:39:29.817Z,60.42
2018-09-11T22:41:57.095Z,61.04
2018-09-11T22:44:24.916Z,60.57
2018-09-11T22:46:52.228Z,60.75
2018-09-11T22:49:19.519Z,60.94
2018-09-11T22:51:46.717Z,61.26
2018-09-11T22:54:13.935Z,61.32
2018-09-11T22:56:41.234Z,60.61
2018-09-11T22:59:09.090Z,61.46
2018-09-11T23:01:36.321Z,61.66
2018-09-11T23:04:03.493Z,61.84
2018-09-11T23:06:30.742Z,61.10
2018-09-11T23:08:57.928Z,61.86
2018-09-11T23:11:25.085Z,61.20
2018-09-11T23:13:52.678Z,61.40
2018-09-11T23:16:19.833Z,61.12
2018-09-11T23:18:46.996Z,60.99
2018-09-11T23:21:14.161Z,61.54
2018-09-11T23:23:41.388Z,61.11
2018-09-11T23:26:08.884Z,61.13
2018-09-11T23:28:36.156Z,62.16
2018-09-11T23:31:03.341Z,61.45
2018-09-11T23:33:31.545Z,60.85
2018-09-11T23:35:58.748Z,61.49
2018-09-11T23:38:25.905Z,61.71
2018-09-11T23:40:53.122Z,62.25
2018-09-11T23:43:20.367Z,62.22
2018-09-11T23:45:47.591Z,62.47
2018-09-11T23:48:14.905Z,61.68
2018-09-11T23:50:42.085Z,61.81
2018-09-11T23:53:09.349Z,62.26
2018-09-11T23:55:36.712Z,62.00
2018-09-11T23:58:03.954Z,61.74
